createdAt,value
2022-07-31T00:00:38.413Z,24.20
2022-07-31T00:03:05.248Z,24.20
2022-07-31T00:05:32.358Z,24.20
2022-07-31T00:08:08.410Z,24.10
2022-07-31T00:10:35.198Z,24.20
2022-07-31T00:13:02.033Z,24.10
2022-07-31T00:15:28.785Z,24.20
2022-07-31T00:17:55.716Z,24.10
2022-07-31T00:20:22.410Z,24.20
2022-07-31T00:22:49.186Z,24.20
2022-07-31T00:25:17.094Z,24.10
2022-07-31T00:27:43.824Z,24.10
2022-07-31T00:30:15.533Z,24.20
2022-07-31T00:32:42.252Z,24.10
2022-07-31T00:35:10.521Z,24.10
2022-07-31T00:37:40.150Z,24.10
2022-07-31T00:40:10.795Z,24.20
2022-07-31T00:42:37.608Z,24.10
2022-07-31T00:45:04.895Z,24.10
2022-07-31T00:47:32.562Z,24.10
2022-07-31T00:50:00.496Z,24.10
2022-07-31T00:52:27.509Z,24.20
2022-07-31T00:54:54.177Z,24.10
2022-07-31T00:57:20.931Z,24.10
2022-07-31T00:59:47.724Z,24.10
2022-07-31T01:02:14.628Z,24.10
2022-07-31T01:04:41.786Z,24.20
2022-07-31T01:07:08.730Z,24.10
2022-07-31T01:09:35.426Z,24.10
2022-07-31T01:12:30.231Z,24.10
2022-07-31T01:15:02.877Z,24.10
2022-07-31T01:17:31.920Z,24.10
2022-07-31T01:19:59.318Z,24.10
2022-07-31T01:22:52.850Z,24.10
2022-07-31T01:25:28.753Z,24.10
2022-07-31T01:28:13.862Z,24.10
2022-07-31T01:30:46.965Z,24.10
2022-07-31T01:33:17.930Z,24.10
2022-07-31T01:36:13.098Z,24.10
2022-07-31T01:38:45.883Z,24.10
2022-07-31T01:41:15.074Z,24.10
2022-07-31T01:43:44.228Z,24.10
2022-07-31T01:46:14.585Z,24.10
2022-07-31T01:48:42.536Z,24.10
2022-07-31T01:51:10.153Z,24.10
2022-07-31T01:53:39.432Z,24.10
2022-07-31T01:56:07.091Z,24.10
2022-07-31T01:58:38.480Z,24.10
2022-07-31T02:01:08.764Z,24.10
2022-07-31T02:03:44.467Z,24.10
2022-07-31T02:06:17.885Z,24.10
2022-07-31T02:08:47.274Z,24.10
2022-07-31T02:11:16.724Z,24.00
2022-07-31T02:13:45.176Z,24.10
2022-07-31T02:16:16.961Z,24.10
2022-07-31T02:18:43.683Z,24.10
2022-07-31T02:21:10.509Z,24.10
2022-07-31T02:23:38.522Z,24.10
2022-07-31T02:26:06.965Z,24.10
2022-07-31T02:28:37.801Z,24.00
2022-07-31T02:31:08.061Z,24.10
2022-07-31T02:33:36.772Z,24.10
2022-07-31T02:36:04.760Z,24.10
2022-07-31T02:38:33.897Z,24.10
2022-07-31T02:41:04.668Z,24.00
2022-07-31T02:43:32.921Z,24.00
2022-07-31T02:46:00.470Z,24.10
2022-07-31T02:48:27.677Z,24.00
2022-07-31T02:50:55.058Z,24.10
2022-07-31T02:53:22.108Z,24.10
2022-07-31T02:55:50.403Z,24.00
2022-07-31T02:58:17.103Z,24.00
2022-07-31T03:00:43.896Z,24.00
2022-07-31T03:03:10.578Z,24.00
2022-07-31T03:05:37.251Z,24.10
2022-07-31T03:08:04.393Z,24.00
2022-07-31T03:10:31.068Z,24.00
2022-07-31T03:13:02.574Z,24.00
2022-07-31T03:15:30.495Z,24.00
2022-07-31T03:17:58.364Z,24.00
2022-07-31T03:20:27.505Z,24.00
2022-07-31T03:22:54.397Z,24.00
2022-07-31T03:25:22.283Z,24.00
2022-07-31T03:27:55.990Z,23.90
2022-07-31T03:30:26.742Z,24.00
2022-07-31T03:32:54.811Z,24.00
2022-07-31T03:35:21.747Z,24.00
2022-07-31T03:37:48.385Z,24.00
2022-07-31T03:40:15.189Z,24.00
2022-07-31T03:42:42.949Z,24.00
2022-07-31T03:45:12.000Z,24.00
2022-07-31T03:47:38.866Z,24.00
2022-07-31T03:50:06.673Z,24.00
2022-07-31T03:52:33.466Z,24.00
2022-07-31T03:55:00.218Z,24.00
2022-07-31T03:57:29.091Z,24.00
2022-07-31T04:00:02.580Z,24.00
2022-07-31T04:02:31.685Z,24.00
2022-07-31T04:04:58.724Z,24.00
2022-07-31T04:07:25.630Z,24.00
2022-07-31T04:09:52.301Z,24.00
2022-07-31T04:12:19.104Z,24.00
2022-07-31T04:14:45.964Z,24.00
2022-07-31T04:17:12.827Z,24.00
2022-07-31T04:19:39.563Z,24.00
2022-07-31T04:22:07.057Z,24.00
2022-07-31T04:24:34.166Z,24.00
2022-07-31T04:27:00.979Z,24.00
2022-07-31T04:29:29.406Z,24.00
2022-07-31T04:31:56.646Z,24.00
2022-07-31T04:34:23.357Z,23.90
2022-07-31T04:36:50.093Z,23.90
2022-07-31T04:39:16.998Z,23.90
2022-07-31T04:41:44.230Z,24.00
2022-07-31T04:44:11.429Z,24.00
2022-07-31T04:46:38.180Z,23.90
2022-07-31T04:49:04.985Z,24.00
2022-07-31T04:51:31.833Z,24.00
2022-07-31T04:53:58.626Z,24.00
2022-07-31T04:56:35.593Z,23.90
2022-07-31T04:59:09.422Z,23.90
2022-07-31T05:01:37.049Z,23.90
2022-07-31T05:04:04.481Z,24.00
2022-07-31T05:06:39.222Z,24.00
2022-07-31T05:09:09.942Z,24.00
2022-07-31T05:11:38.584Z,24.00
2022-07-31T05:14:06.876Z,24.00
2022-07-31T05:16:35.361Z,23.90
2022-07-31T05:19:02.844Z,23.90
2022-07-31T05:21:32.410Z,24.00
2022-07-31T05:24:00.562Z,24.00
2022-07-31T05:26:29.142Z,24.00
2022-07-31T05:28:58.543Z,24.00
2022-07-31T05:31:26.506Z,24.00
2022-07-31T05:33:53.246Z,24.00
2022-07-31T05:36:20.352Z,24.00
2022-07-31T05:38:47.379Z,24.00
2022-07-31T05:41:14.323Z,24.00
2022-07-31T05:43:41.057Z,24.00
2022-07-31T05:46:08.213Z,24.00
2022-07-31T05:48:34.929Z,24.00
2022-07-31T05:51:05.439Z,24.00
2022-07-31T05:53:32.508Z,24.00
2022-07-31T05:55:59.148Z,24.00
2022-07-31T05:58:25.822Z,24.00
2022-07-31T06:00:52.456Z,24.00
2022-07-31T06:03:29.461Z,24.00
2022-07-31T06:05:56.542Z,24.00
2022-07-31T06:08:23.361Z,24.00
2022-07-31T06:10:50.038Z,24.00
2022-07-31T06:13:16.742Z,24.00
2022-07-31T06:15:49.131Z,24.00
2022-07-31T06:18:16.326Z,24.00
2022-07-31T06:20:43.054Z,24.00
2022-07-31T06:23:19.970Z,24.00
2022-07-31T06:25:54.822Z,24.00
2022-07-31T06:28:21.819Z,24.00
2022-07-31T06:31:00.506Z,24.10
2022-07-31T06:33:37.889Z,24.00
2022-07-31T06:36:04.835Z,24.00
2022-07-31T06:38:31.513Z,24.00
2022-07-31T06:40:58.149Z,24.10
2022-07-31T06:43:24.841Z,24.10
2022-07-31T06:45:52.644Z,24.10
2022-07-31T06:48:19.498Z,24.10
2022-07-31T06:50:47.720Z,24.10
2022-07-31T06:53:14.373Z,24.10
2022-07-31T06:55:44.029Z,24.10
2022-07-31T06:58:11.639Z,24.10
2022-07-31T07:00:38.497Z,24.10
2022-07-31T07:03:05.195Z,24.10
2022-07-31T07:05:31.842Z,24.00
2022-07-31T07:07:58.489Z,24.10
2022-07-31T07:10:25.318Z,24.10
2022-07-31T07:12:52.050Z,24.10
2022-07-31T07:15:20.775Z,24.10
2022-07-31T07:17:47.425Z,24.10
2022-07-31T07:20:14.114Z,24.10
2022-07-31T07:22:40.797Z,24.10
2022-07-31T07:25:08.059Z,24.10
2022-07-31T07:27:34.815Z,24.10
2022-07-31T07:30:01.613Z,24.10
2022-07-31T07:32:28.466Z,24.10
2022-07-31T07:34:59.484Z,24.00
2022-07-31T07:37:27.607Z,24.00
2022-07-31T07:39:54.318Z,23.90
2022-07-31T07:42:21.048Z,24.00
2022-07-31T07:44:47.822Z,23.80
2022-07-31T07:47:14.504Z,23.70
2022-07-31T07:49:41.165Z,23.70
2022-07-31T07:52:07.893Z,23.60
2022-07-31T07:54:34.582Z,23.60
2022-07-31T07:57:01.245Z,23.60
2022-07-31T07:59:27.953Z,23.70
2022-07-31T08:01:54.610Z,23.70
2022-07-31T08:04:21.242Z,23.70
2022-07-31T08:06:47.885Z,23.70
2022-07-31T08:09:14.583Z,23.70
2022-07-31T08:11:41.407Z,23.70
2022-07-31T08:14:08.092Z,23.70
2022-07-31T08:16:34.845Z,23.70
2022-07-31T08:19:01.556Z,23.70
2022-07-31T08:21:28.248Z,23.70
2022-07-31T08:23:54.908Z,23.80
2022-07-31T08:26:21.610Z,23.70
2022-07-31T08:28:50.314Z,23.80
2022-07-31T08:31:21.028Z,23.70
2022-07-31T08:33:47.732Z,23.70
2022-07-31T08:36:14.402Z,23.70
2022-07-31T08:38:41.091Z,23.70
2022-07-31T08:41:07.796Z,23.70
2022-07-31T08:44:01.410Z,23.70
2022-07-31T08:46:22.643Z,23.70
2022-07-31T08:48:54.371Z,23.80
2022-07-31T08:51:23.648Z,23.80
2022-07-31T08:53:51.534Z,23.80
2022-07-31T08:56:19.365Z,23.80
2022-07-31T08:58:46.798Z,23.80
2022-07-31T09:01:14.741Z,23.80
2022-07-31T09:03:41.901Z,23.90
2022-07-31T09:06:08.701Z,23.80
2022-07-31T09:08:37.388Z,23.80
2022-07-31T09:11:06.416Z,23.80
2022-07-31T09:13:34.775Z,23.80
2022-07-31T09:16:02.767Z,23.80
2022-07-31T09:18:29.529Z,23.80
2022-07-31T09:21:02.267Z,23.80
2022-07-31T09:23:30.182Z,23.90
2022-07-31T09:26:05.883Z,23.90
2022-07-31T09:28:33.897Z,23.90
2022-07-31T09:31:01.110Z,24.00
2022-07-31T09:33:29.559Z,24.00
2022-07-31T09:35:57.388Z,24.00
2022-07-31T09:38:32.685Z,24.10
2022-07-31T09:41:58.155Z,24.10
2022-07-31T09:44:15.521Z,24.10
2022-07-31T09:46:43.585Z,24.10
2022-07-31T09:49:10.403Z,24.00
2022-07-31T09:51:41.896Z,24.10
2022-07-31T09:54:19.778Z,24.10
2022-07-31T09:56:48.096Z,24.10
2022-07-31T09:59:14.747Z,24.20
2022-07-31T10:01:42.699Z,24.20
2022-07-31T10:04:10.406Z,24.20
2022-07-31T10:06:39.311Z,24.20
2022-07-31T10:09:07.362Z,24.30
2022-07-31T10:11:34.094Z,24.30
2022-07-31T10:14:02.818Z,24.30
2022-07-31T10:16:36.085Z,24.30
2022-07-31T10:19:03.440Z,24.30
2022-07-31T10:21:38.096Z,24.30
2022-07-31T10:24:07.282Z,24.40
2022-07-31T10:26:58.637Z,24.30
2022-07-31T10:29:20.785Z,24.40
2022-07-31T10:31:47.875Z,24.50
2022-07-31T10:34:15.996Z,24.50
2022-07-31T10:36:45.281Z,24.60
2022-07-31T10:39:24.631Z,24.60
2022-07-31T10:42:19.973Z,24.60
2022-07-31T10:44:53.480Z,24.80
2022-07-31T10:47:20.275Z,24.70
2022-07-31T10:49:49.343Z,24.80
2022-07-31T10:52:37.087Z,24.80
2022-07-31T10:55:16.117Z,24.70
2022-07-31T10:57:55.344Z,24.70
2022-07-31T11:00:29.673Z,24.80
2022-07-31T11:02:56.936Z,24.70
2022-07-31T11:05:24.616Z,24.60
2022-07-31T11:08:02.414Z,24.60
2022-07-31T11:10:29.700Z,24.80
2022-07-31T11:13:00.407Z,24.70
2022-07-31T11:15:28.918Z,24.70
2022-07-31T11:18:21.970Z,24.70
2022-07-31T11:20:46.809Z,24.60
2022-07-31T11:23:18.369Z,24.50
2022-07-31T11:25:46.260Z,24.50
2022-07-31T11:28:27.324Z,24.70
2022-07-31T11:31:07.162Z,24.60
2022-07-31T11:33:43.654Z,24.60
2022-07-31T11:36:21.493Z,24.60
2022-07-31T11:38:50.313Z,24.70
2022-07-31T11:41:22.847Z,24.60
2022-07-31T11:43:51.978Z,24.60
2022-07-31T11:46:33.187Z,24.60
2022-07-31T11:49:01.897Z,24.60
2022-07-31T11:51:29.041Z,24.60
2022-07-31T11:53:57.786Z,24.60
2022-07-31T11:56:26.789Z,24.70
2022-07-31T11:58:56.493Z,24.80
2022-07-31T12:01:28.225Z,24.70
2022-07-31T12:03:56.365Z,24.70
2022-07-31T12:06:23.198Z,24.70
2022-07-31T12:08:51.244Z,24.60
2022-07-31T12:11:19.561Z,24.60
2022-07-31T12:13:50.246Z,24.50
2022-07-31T12:16:18.725Z,24.60
2022-07-31T12:18:53.831Z,24.60
2022-07-31T12:21:20.982Z,24.60
2022-07-31T12:23:52.982Z,24.60
2022-07-31T12:26:27.816Z,24.60
2022-07-31T12:28:58.248Z,24.60
2022-07-31T12:31:25.326Z,24.60
2022-07-31T12:33:52.097Z,25.10
2022-07-31T12:36:18.797Z,24.60
2022-07-31T12:38:48.322Z,24.60
2022-07-31T12:41:16.139Z,24.60
2022-07-31T12:43:51.414Z,24.60
2022-07-31T12:46:22.938Z,24.60
2022-07-31T12:48:49.810Z,24.60
2022-07-31T12:51:19.780Z,24.60
2022-07-31T12:53:47.145Z,24.60
2022-07-31T12:56:14.437Z,24.60
2022-07-31T12:58:41.085Z,24.50
2022-07-31T13:01:07.810Z,24.60
2022-07-31T13:03:45.588Z,24.50
2022-07-31T13:06:13.871Z,24.50
2022-07-31T13:08:40.670Z,24.50
2022-07-31T13:11:07.331Z,24.50
2022-07-31T13:13:33.941Z,24.50
2022-07-31T13:16:00.765Z,24.50
2022-07-31T13:18:29.817Z,24.50
2022-07-31T13:20:56.716Z,24.50
2022-07-31T13:23:23.429Z,24.50
2022-07-31T13:25:50.122Z,24.50
2022-07-31T13:28:16.801Z,24.60
2022-07-31T13:30:43.635Z,24.60
2022-07-31T13:35:37.451Z,24.60
2022-07-31T13:38:04.117Z,24.50
2022-07-31T13:40:49.222Z,24.50
2022-07-31T13:43:15.857Z,24.50
2022-07-31T13:45:42.813Z,24.50
2022-07-31T13:48:10.365Z,24.60
2022-07-31T13:50:40.203Z,24.50
2022-07-31T13:53:07.261Z,24.50
2022-07-31T13:55:34.357Z,24.60
2022-07-31T13:58:01.709Z,24.60
2022-07-31T14:00:29.534Z,24.50
2022-07-31T14:02:56.978Z,24.50
2022-07-31T14:05:26.447Z,24.60
2022-07-31T14:07:54.853Z,24.60
2022-07-31T14:10:22.040Z,24.60
2022-07-31T14:12:48.967Z,24.60
2022-07-31T14:15:17.955Z,24.50
2022-07-31T14:17:44.751Z,24.60
2022-07-31T14:20:12.041Z,24.60
2022-07-31T14:22:38.729Z,24.60
2022-07-31T14:25:05.635Z,24.60
2022-07-31T14:27:32.363Z,24.60
2022-07-31T14:29:59.050Z,24.60
2022-07-31T14:32:28.090Z,24.50
2022-07-31T14:34:55.060Z,24.60
2022-07-31T14:37:21.765Z,24.50
2022-07-31T14:39:48.476Z,24.60
2022-07-31T14:42:15.385Z,24.60
2022-07-31T14:44:49.272Z,24.60
2022-07-31T14:47:17.346Z,24.60
2022-07-31T14:50:09.575Z,24.60
2022-07-31T14:52:31.998Z,24.60
2022-07-31T14:55:00.019Z,24.50
2022-07-31T14:57:28.183Z,24.60
2022-07-31T14:59:55.124Z,24.50
2022-07-31T15:02:22.883Z,24.50
2022-07-31T15:04:53.351Z,24.50
2022-07-31T15:07:39.867Z,24.50
2022-07-31T15:10:08.710Z,24.50
2022-07-31T15:12:35.390Z,24.40
2022-07-31T15:15:02.194Z,24.40
2022-07-31T15:17:29.068Z,24.40
2022-07-31T15:19:55.748Z,24.40
2022-07-31T15:22:22.445Z,24.40
2022-07-31T15:24:50.298Z,24.40
2022-07-31T15:27:21.687Z,24.40
2022-07-31T15:30:06.028Z,24.40
2022-07-31T15:32:39.006Z,24.40
2022-07-31T15:35:07.981Z,24.40
2022-07-31T15:37:37.064Z,24.40
2022-07-31T15:40:08.801Z,24.40
2022-07-31T15:42:39.946Z,24.40
2022-07-31T15:45:11.993Z,24.40
2022-07-31T15:47:39.774Z,24.40
2022-07-31T15:50:08.166Z,24.40
2022-07-31T15:52:34.878Z,24.40
2022-07-31T15:55:02.398Z,24.40
2022-07-31T15:57:29.161Z,24.40
2022-07-31T15:59:56.140Z,24.40
2022-07-31T16:02:23.800Z,24.40
2022-07-31T16:04:53.256Z,24.40
2022-07-31T16:08:32.918Z,24.40
2022-07-31T16:10:16.432Z,24.40
2022-07-31T16:12:47.846Z,24.40
2022-07-31T16:15:16.013Z,24.40
2022-07-31T16:17:43.931Z,24.40
2022-07-31T16:20:13.419Z,24.40
2022-07-31T16:23:01.415Z,24.40
2022-07-31T16:25:29.946Z,24.40
2022-07-31T16:27:59.075Z,24.40
2022-07-31T16:30:27.229Z,24.40
2022-07-31T16:32:54.862Z,24.40
2022-07-31T16:35:21.728Z,24.40
2022-07-31T16:37:52.256Z,24.40
2022-07-31T16:40:29.981Z,24.40
2022-07-31T16:43:48.090Z,24.40
2022-07-31T16:45:50.797Z,24.40
2022-07-31T16:48:17.869Z,24.40
2022-07-31T16:50:44.565Z,24.40
2022-07-31T16:54:11.635Z,24.40
2022-07-31T16:56:01.867Z,24.40
2022-07-31T16:58:28.965Z,24.40
2022-07-31T17:00:56.068Z,24.40
2022-07-31T17:03:58.425Z,24.40
2022-07-31T17:06:11.302Z,24.40
2022-07-31T17:08:38.250Z,24.40
2022-07-31T17:11:05.298Z,24.30
2022-07-31T17:13:31.950Z,24.30
2022-07-31T17:15:58.606Z,24.40
2022-07-31T17:18:25.913Z,24.30
2022-07-31T17:20:56.112Z,24.40
2022-07-31T17:23:43.342Z,24.40
2022-07-31T17:26:21.551Z,24.40
2022-07-31T17:28:50.394Z,24.40
2022-07-31T17:31:18.405Z,24.40
2022-07-31T17:33:58.543Z,24.40
2022-07-31T17:36:29.015Z,24.40
2022-07-31T17:38:57.057Z,24.40
2022-07-31T17:41:25.502Z,24.40
2022-07-31T17:43:56.117Z,24.40
2022-07-31T17:46:34.767Z,24.40
2022-07-31T17:49:05.633Z,24.40
2022-07-31T17:51:32.980Z,24.40
2022-07-31T17:54:00.066Z,24.40
2022-07-31T17:56:27.539Z,24.40
2022-07-31T17:58:55.421Z,24.50
2022-07-31T18:01:26.961Z,24.50
2022-07-31T18:03:55.879Z,24.50
2022-07-31T18:06:22.723Z,24.50
2022-07-31T18:08:49.449Z,24.50
2022-07-31T18:11:16.159Z,24.50
2022-07-31T18:13:48.769Z,24.50
2022-07-31T18:16:19.148Z,24.40
2022-07-31T18:18:46.278Z,24.40
2022-07-31T18:21:13.315Z,24.50
2022-07-31T18:23:44.060Z,24.50
2022-07-31T18:26:14.612Z,24.40
2022-07-31T18:28:41.708Z,24.40
2022-07-31T18:31:31.606Z,24.40
2022-07-31T18:33:55.373Z,24.40
2022-07-31T18:36:22.090Z,24.40
2022-07-31T18:38:48.886Z,24.40
2022-07-31T18:41:15.651Z,24.40
2022-07-31T18:43:42.407Z,24.40
2022-07-31T18:46:09.082Z,24.40
2022-07-31T18:48:35.750Z,24.40
2022-07-31T18:51:04.880Z,24.40
2022-07-31T18:53:32.326Z,24.40
2022-07-31T18:55:59.104Z,24.40
2022-07-31T18:58:25.795Z,24.40
2022-07-31T19:00:55.221Z,24.40
2022-07-31T19:03:23.266Z,24.40
2022-07-31T19:05:52.159Z,24.40
2022-07-31T19:08:19.470Z,24.40
2022-07-31T19:10:48.993Z,24.40
2022-07-31T19:13:18.972Z,24.40
2022-07-31T19:15:51.403Z,24.40
2022-07-31T19:18:21.783Z,24.40
2022-07-31T19:21:17.667Z,24.40
2022-07-31T19:23:43.575Z,24.40
2022-07-31T19:26:10.386Z,24.40
2022-07-31T19:28:38.097Z,24.40
2022-07-31T19:31:05.185Z,24.40
2022-07-31T19:33:31.856Z,24.40
2022-07-31T19:36:02.311Z,24.40
2022-07-31T19:38:30.825Z,24.40
2022-07-31T19:40:57.742Z,24.40
2022-07-31T19:43:24.518Z,24.40
2022-07-31T19:46:00.437Z,24.40
2022-07-31T19:48:40.450Z,24.40
2022-07-31T19:51:07.357Z,24.40
2022-07-31T19:53:34.031Z,24.40
2022-07-31T19:56:05.148Z,24.40
2022-07-31T19:58:33.479Z,24.40
2022-07-31T20:01:00.473Z,24.40
2022-07-31T20:03:27.227Z,24.40
2022-07-31T20:05:54.020Z,24.40
2022-07-31T20:08:20.660Z,24.40
2022-07-31T20:10:47.308Z,24.40
2022-07-31T20:13:14.228Z,24.40
2022-07-31T20:15:52.099Z,24.40
2022-07-31T20:18:27.171Z,24.40
2022-07-31T20:21:00.847Z,24.40
2022-07-31T20:23:27.746Z,24.40
2022-07-31T20:25:54.498Z,24.40
2022-07-31T20:28:21.657Z,24.40
2022-07-31T20:30:48.387Z,24.40
2022-07-31T20:33:15.719Z,24.40
2022-07-31T20:35:49.428Z,24.40
2022-07-31T20:38:18.145Z,24.40
2022-07-31T20:40:53.420Z,24.40
2022-07-31T20:43:27.727Z,24.40
2022-07-31T20:45:59.282Z,24.40
2022-07-31T20:48:31.810Z,24.30
2022-07-31T20:51:00.214Z,24.20
2022-07-31T20:53:27.480Z,24.30
2022-07-31T20:55:54.396Z,24.30
2022-07-31T20:58:22.885Z,24.40
2022-07-31T21:00:50.632Z,24.40
2022-07-31T21:03:17.766Z,24.40
2022-07-31T21:05:45.908Z,24.40
2022-07-31T21:08:12.639Z,24.30
2022-07-31T21:10:39.581Z,24.20
2022-07-31T21:13:06.277Z,24.20
2022-07-31T21:15:44.227Z,24.20
2022-07-31T21:18:16.388Z,24.30
2022-07-31T21:20:52.442Z,24.30
2022-07-31T21:23:27.395Z,24.30
2022-07-31T21:25:55.951Z,24.30
2022-07-31T21:28:24.075Z,24.30
2022-07-31T21:30:53.436Z,24.30
2022-07-31T21:33:20.279Z,24.30
2022-07-31T21:35:47.184Z,24.30
2022-07-31T21:38:17.026Z,24.30
2022-07-31T21:40:45.120Z,24.30
2022-07-31T21:43:16.854Z,24.30
2022-07-31T21:45:55.674Z,24.30
2022-07-31T21:48:28.693Z,24.30
2022-07-31T21:50:55.717Z,24.30
2022-07-31T21:53:23.394Z,24.30
2022-07-31T21:55:50.475Z,24.30
2022-07-31T21:58:17.224Z,24.30
2022-07-31T22:00:44.571Z,24.30
2022-07-31T22:03:11.552Z,24.30
2022-07-31T22:05:56.652Z,24.30
2022-07-31T22:08:23.425Z,24.30
2022-07-31T22:10:51.182Z,24.30
2022-07-31T22:13:19.438Z,24.30
2022-07-31T22:15:52.762Z,24.30
2022-07-31T22:18:28.242Z,24.30
2022-07-31T22:20:55.140Z,24.30
2022-07-31T22:23:22.996Z,24.30
2022-07-31T22:25:49.921Z,24.30
2022-07-31T22:28:20.982Z,24.30
2022-07-31T22:30:48.211Z,24.30
2022-07-31T22:33:18.084Z,24.30
2022-07-31T22:35:45.210Z,24.30
2022-07-31T22:38:27.157Z,24.30
2022-07-31T22:40:53.867Z,24.30
2022-07-31T22:44:10.046Z,24.30
2022-07-31T22:46:09.059Z,24.30
2022-07-31T22:48:38.594Z,24.30
2022-07-31T22:51:05.377Z,24.30
2022-07-31T22:53:32.322Z,24.30
2022-07-31T22:55:59.022Z,24.30
2022-07-31T22:58:25.735Z,24.20
2022-07-31T23:00:52.397Z,24.30
2022-07-31T23:03:19.030Z,24.20
2022-07-31T23:06:02.585Z,24.30
2022-07-31T23:08:32.373Z,24.30
2022-07-31T23:10:59.044Z,24.20
2022-07-31T23:13:25.682Z,24.30
2022-07-31T23:15:52.344Z,24.30
2022-07-31T23:18:18.994Z,24.30
2022-07-31T23:20:45.612Z,24.30
2022-07-31T23:23:12.346Z,24.30
2022-07-31T23:25:39.010Z,24.30
2022-07-31T23:28:05.651Z,24.30
2022-07-31T23:30:32.310Z,24.30
2022-07-31T23:32:58.946Z,24.20
2022-07-31T23:35:26.020Z,24.30
2022-07-31T23:37:52.654Z,24.30
2022-07-31T23:40:19.296Z,24.20
2022-07-31T23:42:46.122Z,24.20
2022-07-31T23:45:15.700Z,24.30
2022-07-31T23:47:46.202Z,24.30
2022-07-31T23:50:15.049Z,24.30
2022-07-31T23:52:43.422Z,24.20
2022-07-31T23:55:10.237Z,24.20
2022-07-31T23:57:37.445Z,24.20
